Time;durP1;ratioP1;P1;durP2;ratioP2;P2;SDS_P1;SDS_P2;PMS_P1;PMS_P2;Temp;Humidity;BMP_temperature;BMP_pressure;BME280_temperature;BME280_humidity;BME280_pressure;Samples;Min_cycle;Max_cycle;Signal;HPM_P1;HPM_P2
2021/09/28 00:02:28;;;;;;;2.87;2.13;;;;;;;;;;4995774;28;20277;-64
2021/09/28 00:04:59;;;;;;;1.98;1.77;;;;;;;;;;4995864;28;20273;-64
2021/09/28 00:07:27;;;;;;;2.05;1.73;;;;;;;;;;4995730;28;20019;-64
2021/09/28 00:09:55;;;;;;;2.33;1.50;;;;;;;;;;4995797;28;20022;-64
2021/09/28 00:12:25;;;;;;;1.90;1.60;;;;;;;;;;4995652;28;20018;-64
2021/09/28 00:14:56;;;;;;;4.20;1.02;;;;;;;;;;5018739;28;20108;-64
2021/09/28 00:17:24;;;;;;;1.40;0.90;;;;;;;;;;4996980;28;20130;-64
2021/09/28 00:19:58;;;;;;;1.77;0.60;;;;;;;;;;4995736;28;20499;-64
2021/09/28 00:22:26;;;;;;;1.30;0.60;;;;;;;;;;5002393;28;20022;-64
2021/09/28 00:24:58;;;;;;;0.75;0.38;;;;;;;;;;4995518;28;20030;-64
2021/09/28 00:27:23;;;;;;;0.77;0.60;;;;;;;;;;4993996;28;20385;-64
2021/09/28 00:29:54;;;;;;;0.80;0.65;;;;;;;;;;4995357;28;20022;-64
2021/09/28 00:32:20;;;;;;;0.65;0.52;;;;;;;;;;4995633;28;20022;-64
2021/09/28 00:34:48;;;;;;;0.83;0.73;;;;;;;;;;4995520;28;20025;-64
2021/09/28 00:37:13;;;;;;;1.80;0.50;;;;;;;;;;4995138;28;20257;-65
2021/09/28 00:39:38;;;;;;;0.52;0.50;;;;;;;;;;4995145;28;20029;-65
2021/09/28 00:42:07;;;;;;;0.97;0.60;;;;;;;;;;5019081;28;20516;-64
2021/09/28 00:44:36;;;;;;;0.50;0.50;;;;;;;;;;4998109;28;20262;-64
2021/09/28 00:47:02;;;;;;;0.85;0.40;;;;;;;;;;4995118;28;20041;-64
2021/09/28 00:49:27;;;;;;;0.68;0.50;;;;;;;;;;4995030;28;20030;-64
2021/09/28 00:51:52;;;;;;;0.52;0.52;;;;;;;;;;4995017;28;20026;-65
2021/09/28 00:54:18;;;;;;;1.75;0.40;;;;;;;;;;4994923;28;20049;-64
2021/09/28 00:56:43;;;;;;;0.40;0.40;;;;;;;;;;4994922;28;20022;-65
2021/09/28 00:59:11;;;;;;;0.57;0.47;;;;;;;;;;4994870;28;20018;-64
2021/09/28 01:01:48;;;;;;;3.30;0.60;;;;;;;;;;4994957;28;20022;-64
2021/09/28 01:04:16;;;;;;;0.93;0.47;;;;;;;;;;5027348;28;20022;-63
2021/09/28 01:06:42;;;;;;;1.02;0.40;;;;;;;;;;5003291;28;20062;-63
2021/09/28 01:09:08;;;;;;;1.75;0.45;;;;;;;;;;4994136;28;20026;-62
2021/09/28 01:11:33;;;;;;;0.45;0.43;;;;;;;;;;4994805;28;20032;-62
2021/09/28 01:13:58;;;;;;;0.60;0.40;;;;;;;;;;5003673;28;20025;-62
2021/09/28 01:16:24;;;;;;;0.50;0.50;;;;;;;;;;5012137;28;20015;-62
2021/09/28 01:18:49;;;;;;;0.60;0.45;;;;;;;;;;4994676;28;20293;-61
2021/09/28 01:21:20;;;;;;;0.47;0.40;;;;;;;;;;4999128;28;20030;-62
2021/09/28 01:23:46;;;;;;;0.75;0.50;;;;;;;;;;4978163;28;20265;-60
2021/09/28 01:26:16;;;;;;;1.85;0.50;;;;;;;;;;5020999;28;20033;-62
2021/09/28 01:29:02;;;;;;;0.68;0.38;;;;;;;;;;4993988;28;20030;-62
2021/09/28 01:31:27;;;;;;;0.98;0.60;;;;;;;;;;4994164;28;20034;-62
2021/09/28 01:33:52;;;;;;;0.60;0.50;;;;;;;;;;4994239;28;20019;-63
2021/09/28 01:36:21;;;;;;;0.65;0.40;;;;;;;;;;4994163;28;20109;-63
2021/09/28 01:38:46;;;;;;;0.63;0.43;;;;;;;;;;4994152;28;20034;-63
2021/09/28 01:41:14;;;;;;;0.68;0.40;;;;;;;;;;4994103;28;20026;-63
2021/09/28 01:43:39;;;;;;;1.20;0.40;;;;;;;;;;4994035;28;20030;-64
2021/09/28 01:46:05;;;;;;;1.67;0.50;;;;;;;;;;4993894;28;20052;-63
2021/09/28 01:48:46;;;;;;;0.98;0.40;;;;;;;;;;4993781;28;20018;-63
2021/09/28 01:51:11;;;;;;;0.47;0.40;;;;;;;;;;4993024;28;20385;-63
2021/09/28 01:53:46;;;;;;;0.80;0.60;;;;;;;;;;4993953;28;20026;-62
2021/09/28 01:56:21;;;;;;;1.25;0.38;;;;;;;;;;4993851;28;20481;-63
2021/09/28 01:58:46;;;;;;;1.23;0.55;;;;;;;;;;4992621;28;20022;-63
2021/09/28 02:01:21;;;;;;;1.30;0.50;;;;;;;;;;4992469;28;20493;-63
2021/09/28 02:03:49;;;;;;;1.33;0.63;;;;;;;;;;4992372;28;20022;-64
2021/09/28 02:06:31;;;;;;;1.60;0.40;;;;;;;;;;4993727;28;20109;-63
2021/09/28 02:08:57;;;;;;;0.47;0.47;;;;;;;;;;4993367;28;20035;-64
2021/09/28 02:11:22;;;;;;;1.92;0.40;;;;;;;;;;4993511;28;20287;-64
2021/09/28 02:13:50;;;;;;;0.97;0.50;;;;;;;;;;5024101;28;20014;-64
2021/09/28 02:16:25;;;;;;;1.02;0.50;;;;;;;;;;5013106;28;20260;-64
2021/09/28 02:18:59;;;;;;;1.40;0.60;;;;;;;;;;5011511;28;20068;-64
2021/09/28 02:21:24;;;;;;;3.80;0.55;;;;;;;;;;5012002;28;20456;-64
2021/09/28 02:23:53;;;;;;;1.10;0.77;;;;;;;;;;4994409;28;20058;-64
2021/09/28 02:26:18;;;;;;;0.57;0.40;;;;;;;;;;4993269;28;20324;-64
2021/09/28 02:28:43;;;;;;;0.77;0.40;;;;;;;;;;4993158;28;20062;-63
2021/09/28 02:31:08;;;;;;;0.90;0.50;;;;;;;;;;4993197;28;20748;-63
2021/09/28 02:33:37;;;;;;;1.00;0.60;;;;;;;;;;5027259;28;20826;-63
2021/09/28 02:36:05;;;;;;;0.47;0.47;;;;;;;;;;4999288;28;20057;-63
2021/09/28 02:38:30;;;;;;;2.10;0.63;;;;;;;;;;5027434;28;20449;-63
2021/09/28 02:40:55;;;;;;;0.57;0.40;;;;;;;;;;4999988;28;20054;-64
2021/09/28 02:43:24;;;;;;;2.33;0.50;;;;;;;;;;4993264;28;20262;-64
2021/09/28 02:45:55;;;;;;;2.50;0.60;;;;;;;;;;4993143;28;20323;-64
2021/09/28 02:48:20;;;;;;;1.75;0.60;;;;;;;;;;4999788;28;20029;-65
2021/09/28 02:50:45;;;;;;;1.17;0.50;;;;;;;;;;5012624;28;20018;-65
2021/09/28 02:53:11;;;;;;;0.60;0.40;;;;;;;;;;5011235;28;20268;-65
2021/09/28 02:55:40;;;;;;;0.75;0.60;;;;;;;;;;5012464;28;20093;-65
2021/09/28 02:58:05;;;;;;;1.98;0.63;;;;;;;;;;5011278;28;20030;-64
2021/09/28 03:00:30;;;;;;;0.65;0.43;;;;;;;;;;5011203;28;20398;-63
2021/09/28 03:02:56;;;;;;;2.17;0.60;;;;;;;;;;5011167;28;20033;-64
2021/09/28 03:05:27;;;;;;;0.70;0.60;;;;;;;;;;5012536;28;20087;-64
2021/09/28 03:07:55;;;;;;;1.38;0.60;;;;;;;;;;5012245;28;20284;-64
2021/09/28 03:10:23;;;;;;;3.22;0.70;;;;;;;;;;5012396;28;20049;-64
2021/09/28 03:12:48;;;;;;;2.17;0.50;;;;;;;;;;5012727;28;20060;-63
2021/09/28 03:15:17;;;;;;;2.25;0.60;;;;;;;;;;5024222;28;20110;-63
2021/09/28 03:17:42;;;;;;;1.67;0.50;;;;;;;;;;4992431;28;20042;-63
2021/09/28 03:20:10;;;;;;;0.87;0.50;;;;;;;;;;5021153;28;20018;-64
2021/09/28 03:22:39;;;;;;;1.27;0.57;;;;;;;;;;4999583;28;20262;-63
2021/09/28 03:25:04;;;;;;;2.33;0.47;;;;;;;;;;4992646;28;20026;-63
2021/09/28 03:27:29;;;;;;;0.77;0.43;;;;;;;;;;4991368;28;20114;-64
2021/09/28 03:29:58;;;;;;;0.40;0.40;;;;;;;;;;5020959;28;20018;-64
2021/09/28 03:32:23;;;;;;;1.55;0.70;;;;;;;;;;5017070;28;20024;-64
2021/09/28 03:34:48;;;;;;;0.87;0.50;;;;;;;;;;4999277;28;20540;-64
2021/09/28 03:37:19;;;;;;;0.70;0.60;;;;;;;;;;4996368;28;20752;-64
2021/09/28 03:39:45;;;;;;;0.55;0.50;;;;;;;;;;4996386;28;20284;-64
2021/09/28 03:42:13;;;;;;;0.90;0.50;;;;;;;;;;4996486;28;20381;-63
2021/09/28 03:44:38;;;;;;;1.58;0.40;;;;;;;;;;5024662;28;20779;-64
2021/09/28 03:47:03;;;;;;;1.93;0.50;;;;;;;;;;4996363;28;20037;-64
2021/09/28 03:49:28;;;;;;;3.10;0.60;;;;;;;;;;4996064;28;20332;-64
2021/09/28 03:51:57;;;;;;;1.37;0.50;;;;;;;;;;5020737;28;20018;-64
2021/09/28 03:54:25;;;;;;;2.13;0.50;;;;;;;;;;4999416;28;20258;-65
2021/09/28 03:56:53;;;;;;;1.13;0.47;;;;;;;;;;4996016;28;20057;-65
2021/09/28 03:59:18;;;;;;;2.08;0.80;;;;;;;;;;4996036;28;20026;-65
2021/09/28 04:01:43;;;;;;;0.98;0.73;;;;;;;;;;4996024;28;20029;-64
2021/09/28 04:04:10;;;;;;;3.15;0.60;;;;;;;;;;5027839;28;20532;-64
2021/09/28 04:06:38;;;;;;;2.95;0.80;;;;;;;;;;5004811;28;20517;-65
2021/09/28 04:09:04;;;;;;;4.13;0.60;;;;;;;;;;5027840;28;20022;-65
2021/09/28 04:11:32;;;;;;;3.08;0.80;;;;;;;;;;5004815;28;20029;-63
2021/09/28 04:13:57;;;;;;;0.80;0.60;;;;;;;;;;5009691;28;20025;-64
2021/09/28 04:16:24;;;;;;;0.63;0.60;;;;;;;;;;5014353;28;20017;-63
2021/09/28 04:18:56;;;;;;;1.08;0.60;;;;;;;;;;5009473;28;20097;-64
2021/09/28 04:21:25;;;;;;;0.98;0.50;;;;;;;;;;4994746;28;20026;-64
2021/09/28 04:23:54;;;;;;;2.65;0.70;;;;;;;;;;4994982;28;20178;-65
2021/09/28 04:26:19;;;;;;;0.98;0.70;;;;;;;;;;4994726;28;20022;-64
2021/09/28 04:28:44;;;;;;;0.83;0.50;;;;;;;;;;4994579;28;20084;-64
2021/09/28 04:31:12;;;;;;;3.80;0.70;;;;;;;;;;5004456;28;20330;-64
2021/09/28 04:33:37;;;;;;;1.08;0.55;;;;;;;;;;5007506;28;20023;-65
2021/09/28 04:36:02;;;;;;;1.33;0.40;;;;;;;;;;4994836;28;20363;-64
2021/09/28 04:38:30;;;;;;;0.60;0.50;;;;;;;;;;4994644;28;20262;-65
2021/09/28 04:40:55;;;;;;;2.25;0.50;;;;;;;;;;4994607;28;20029;-65
2021/09/28 04:43:21;;;;;;;1.92;0.60;;;;;;;;;;4992910;28;20030;-64
2021/09/28 04:45:52;;;;;;;1.67;0.40;;;;;;;;;;4993365;28;20022;-64
2021/09/28 04:48:20;;;;;;;2.22;0.70;;;;;;;;;;4997760;28;20339;-64
2021/09/28 04:50:53;;;;;;;1.35;0.55;;;;;;;;;;4994246;28;20508;-64
2021/09/28 04:53:22;;;;;;;7.05;0.75;;;;;;;;;;4994003;28;20384;-64
2021/09/28 04:55:55;;;;;;;2.33;0.65;;;;;;;;;;4994228;28;20476;-63
2021/09/28 04:58:23;;;;;;;1.70;0.50;;;;;;;;;;4994647;28;20125;-63
2021/09/28 05:00:52;;;;;;;3.83;0.68;;;;;;;;;;4994161;28;20483;-64
2021/09/28 05:03:17;;;;;;;1.35;0.55;;;;;;;;;;4993686;28;20074;-63
2021/09/28 05:05:45;;;;;;;1.13;0.68;;;;;;;;;;4993931;28;20489;-64
2021/09/28 05:08:11;;;;;;;2.25;0.50;;;;;;;;;;4993795;28;20222;-64
2021/09/28 05:10:36;;;;;;;1.83;0.55;;;;;;;;;;4993870;28;20056;-64
2021/09/28 05:13:11;;;;;;;3.30;0.77;;;;;;;;;;4993443;28;20034;-64
2021/09/28 05:15:36;;;;;;;3.47;0.70;;;;;;;;;;5019084;28;20084;-63
2021/09/28 05:18:07;;;;;;;2.53;0.70;;;;;;;;;;4993597;28;20133;-64
2021/09/28 05:20:32;;;;;;;3.80;0.80;;;;;;;;;;4992426;28;20752;-64
2021/09/28 05:23:01;;;;;;;3.40;0.90;;;;;;;;;;4997881;28;20029;-65
2021/09/28 05:25:29;;;;;;;5.65;1.25;;;;;;;;;;5025779;28;20033;-64
2021/09/28 05:27:57;;;;;;;7.07;1.17;;;;;;;;;;5001424;28;20029;-64
2021/09/28 05:30:22;;;;;;;2.15;0.70;;;;;;;;;;4993669;28;20014;-64
2021/09/28 05:32:50;;;;;;;1.53;0.60;;;;;;;;;;4992104;28;20030;-65
2021/09/28 05:35:16;;;;;;;6.20;1.00;;;;;;;;;;4993393;28;20288;-64
2021/09/28 05:37:41;;;;;;;1.85;1.10;;;;;;;;;;5018961;28;20507;-65
2021/09/28 05:40:07;;;;;;;2.67;0.80;;;;;;;;;;4993724;28;20026;-65
2021/09/28 05:42:32;;;;;;;1.65;0.77;;;;;;;;;;5010386;28;20436;-63
2021/09/28 05:44:57;;;;;;;2.57;0.77;;;;;;;;;;5012593;28;20496;-64
2021/09/28 05:47:23;;;;;;;3.87;0.90;;;;;;;;;;5005553;28;20265;-63
2021/09/28 05:49:48;;;;;;;2.15;0.82;;;;;;;;;;5012408;28;20375;-64
2021/09/28 05:52:19;;;;;;;2.35;0.93;;;;;;;;;;5002962;28;20380;-64
2021/09/28 05:54:54;;;;;;;4.68;1.10;;;;;;;;;;5000639;28;20029;-64
2021/09/28 05:57:28;;;;;;;3.30;1.00;;;;;;;;;;5016088;28;20049;-64
2021/09/28 05:59:53;;;;;;;4.50;1.15;;;;;;;;;;5010330;28;20045;-64
2021/09/28 06:02:19;;;;;;;1.92;0.88;;;;;;;;;;5009831;28;20021;-64
2021/09/28 06:04:44;;;;;;;2.63;0.93;;;;;;;;;;5010273;28;20032;-64
2021/09/28 06:07:09;;;;;;;1.23;0.70;;;;;;;;;;5010319;28;20112;-64
2021/09/28 06:09:37;;;;;;;4.83;0.90;;;;;;;;;;5009101;28;20428;-65
2021/09/28 06:12:04;;;;;;;2.63;0.77;;;;;;;;;;5008461;28;20340;-64
2021/09/28 06:14:29;;;;;;;1.10;1.00;;;;;;;;;;5008657;28;20045;-65
2021/09/28 06:16:54;;;;;;;1.95;0.90;;;;;;;;;;5008351;28;20039;-65
2021/09/28 06:19:20;;;;;;;3.33;0.90;;;;;;;;;;5012219;28;20084;-64
2021/09/28 06:21:45;;;;;;;5.68;0.90;;;;;;;;;;5002416;28;20449;-64
2021/09/28 06:24:21;;;;;;;3.90;1.00;;;;;;;;;;5020458;28;20077;-64
2021/09/28 06:26:46;;;;;;;2.88;1.00;;;;;;;;;;5018454;28;20272;-64
2021/09/28 06:29:15;;;;;;;3.45;0.90;;;;;;;;;;4994440;28;20022;-65
2021/09/28 06:31:42;;;;;;;1.65;0.98;;;;;;;;;;5003314;28;20022;-65
2021/09/28 06:34:07;;;;;;;4.22;1.20;;;;;;;;;;5009558;28;20116;-64
2021/09/28 06:36:32;;;;;;;1.40;0.73;;;;;;;;;;5010736;28;20109;-64
2021/09/28 06:39:07;;;;;;;5.37;2.33;;;;;;;;;;5011023;28;20049;-65
2021/09/28 06:41:41;;;;;;;2.63;0.90;;;;;;;;;;5008690;28;20363;-64
2021/09/28 06:44:06;;;;;;;3.60;1.00;;;;;;;;;;5008317;28;20101;-63
2021/09/28 06:46:52;;;;;;;1.85;0.82;;;;;;;;;;5011887;28;20449;-64
2021/09/28 06:49:17;;;;;;;2.28;0.90;;;;;;;;;;5011488;28;20088;-64
2021/09/28 06:51:45;;;;;;;2.05;0.80;;;;;;;;;;5011904;28;20046;-63
2021/09/28 06:54:13;;;;;;;3.10;1.10;;;;;;;;;;5011340;28;20465;-64
2021/09/28 06:56:42;;;;;;;2.05;1.13;;;;;;;;;;5010591;28;20519;-65
2021/09/28 06:59:08;;;;;;;2.38;1.00;;;;;;;;;;5010429;28;20444;-64
2021/09/28 07:01:40;;;;;;;4.65;1.15;;;;;;;;;;5011725;28;20435;-64
2021/09/28 07:04:11;;;;;;;6.65;1.05;;;;;;;;;;5010053;28;20484;-65
2021/09/28 07:06:37;;;;;;;2.22;1.40;;;;;;;;;;5011674;28;20432;-64
2021/09/28 07:09:14;;;;;;;3.25;1.20;;;;;;;;;;5013240;28;20026;-63
2021/09/28 07:11:48;;;;;;;3.13;1.13;;;;;;;;;;5014544;28;20495;-63
2021/09/28 07:14:16;;;;;;;4.47;1.40;;;;;;;;;;5016069;28;20025;-63
2021/09/28 07:16:51;;;;;;;1.90;1.08;;;;;;;;;;5033795;28;20080;-63
2021/09/28 07:19:16;;;;;;;2.03;1.23;;;;;;;;;;5017506;28;20096;-65
2021/09/28 07:21:41;;;;;;;5.73;1.43;;;;;;;;;;5016407;28;20481;-66
2021/09/28 07:24:12;;;;;;;2.90;1.10;;;;;;;;;;5010739;28;20682;-66
2021/09/28 07:26:44;;;;;;;3.28;1.33;;;;;;;;;;5025127;28;20261;-66
2021/09/28 07:29:12;;;;;;;4.63;1.10;;;;;;;;;;5009223;28;20022;-65
2021/09/28 07:31:37;;;;;;;6.20;1.20;;;;;;;;;;4996539;28;20034;-65
2021/09/28 07:34:02;;;;;;;5.60;1.23;;;;;;;;;;4996564;28;20385;-65
2021/09/28 07:36:30;;;;;;;1.52;1.00;;;;;;;;;;5024646;28;20343;-65
2021/09/28 07:39:00;;;;;;;4.20;1.00;;;;;;;;;;5019041;28;20023;-65
2021/09/28 07:41:25;;;;;;;3.90;1.15;;;;;;;;;;5001334;28;20026;-65
2021/09/28 07:43:51;;;;;;;2.13;1.00;;;;;;;;;;4996707;28;20038;-64
2021/09/28 07:46:16;;;;;;;1.80;0.90;;;;;;;;;;4996123;28;20265;-65
2021/09/28 07:48:45;;;;;;;5.30;1.17;;;;;;;;;;4996101;28;20022;-64
2021/09/28 07:51:18;;;;;;;3.38;1.02;;;;;;;;;;4994930;28;20668;-65
2021/09/28 07:54:01;;;;;;;2.55;1.13;;;;;;;;;;5000275;28;20031;-64
2021/09/28 07:56:29;;;;;;;3.63;1.02;;;;;;;;;;4996043;28;20022;-64
2021/09/28 07:58:59;;;;;;;5.28;1.10;;;;;;;;;;5022502;28;20021;-64
2021/09/28 08:01:24;;;;;;;3.05;1.23;;;;;;;;;;4996844;28;20037;-64
2021/09/28 08:03:52;;;;;;;3.45;0.77;;;;;;;;;;4996041;28;20462;-64
2021/09/28 08:06:18;;;;;;;1.33;0.80;;;;;;;;;;4996141;28;20027;-64
2021/09/28 08:08:52;;;;;;;1.73;0.80;;;;;;;;;;4994666;28;20033;-64
2021/09/28 08:11:17;;;;;;;4.75;1.38;;;;;;;;;;5001371;28;20354;-65
2021/09/28 08:13:42;;;;;;;2.27;0.80;;;;;;;;;;5014200;28;20049;-64
2021/09/28 08:16:14;;;;;;;2.33;0.90;;;;;;;;;;5015238;28;20748;-64
2021/09/28 08:18:42;;;;;;;2.42;0.93;;;;;;;;;;5014940;28;20084;-64
2021/09/28 08:21:07;;;;;;;4.30;1.00;;;;;;;;;;5020396;28;20544;-64
2021/09/28 08:23:35;;;;;;;3.05;1.00;;;;;;;;;;4995742;28;20113;-65
2021/09/28 08:29:08;;;;;;;2.83;0.88;;;;;;;;;;5040299;28;20022;-65
2021/09/28 08:31:29;;;;;;;1.65;1.10;;;;;;;;;;5015329;28;20396;-64
2021/09/28 08:33:54;;;;;;;4.90;1.23;;;;;;;;;;5015031;28;20022;-65
2021/09/28 08:36:19;;;;;;;2.30;1.13;;;;;;;;;;5015387;28;20025;-65
2021/09/28 08:38:45;;;;;;;1.87;1.00;;;;;;;;;;5013645;28;20026;-65
2021/09/28 08:41:21;;;;;;;2.63;1.17;;;;;;;;;;5014811;28;20121;-65
2021/09/28 08:43:46;;;;;;;2.22;1.00;;;;;;;;;;5014814;28;20264;-65
2021/09/28 08:46:15;;;;;;;3.72;0.80;;;;;;;;;;5014825;28;20101;-65
2021/09/28 08:48:41;;;;;;;3.92;0.95;;;;;;;;;;5014569;28;20432;-65
2021/09/28 08:51:12;;;;;;;3.67;1.30;;;;;;;;;;5014640;28;20075;-65
2021/09/28 08:53:41;;;;;;;1.50;0.90;;;;;;;;;;5014787;28;20377;-65
2021/09/28 08:56:11;;;;;;;2.33;0.90;;;;;;;;;;5011721;28;20022;-65
2021/09/28 08:58:55;;;;;;;3.58;1.55;;;;;;;;;;5027782;28;20389;-64
2021/09/28 09:01:24;;;;;;;3.28;1.13;;;;;;;;;;5001055;28;20412;-64
2021/09/28 09:03:49;;;;;;;1.73;1.10;;;;;;;;;;4994866;28;20077;-64
2021/09/28 09:06:18;;;;;;;3.00;1.00;;;;;;;;;;4993594;28;20022;-64
2021/09/28 09:08:53;;;;;;;3.05;1.30;;;;;;;;;;5017233;28;20030;-64
2021/09/28 09:11:21;;;;;;;1.60;1.00;;;;;;;;;;4999040;28;20490;-64
2021/09/28 09:13:50;;;;;;;5.97;1.52;;;;;;;;;;4993364;28;20021;-64
2021/09/28 09:16:16;;;;;;;2.25;1.02;;;;;;;;;;5006230;28;20018;-66
2021/09/28 09:19:01;;;;;;;6.38;1.67;;;;;;;;;;5024023;28;20056;-64
2021/09/28 09:21:27;;;;;;;5.45;1.20;;;;;;;;;;5014284;28;20084;-64
2021/09/28 09:23:52;;;;;;;2.15;1.10;;;;;;;;;;5011179;28;20014;-64
2021/09/28 09:26:26;;;;;;;3.55;1.05;;;;;;;;;;5012262;28;20029;-63
2021/09/28 09:29:05;;;;;;;3.47;1.10;;;;;;;;;;5012405;28;20052;-64
2021/09/28 09:31:34;;;;;;;2.67;1.00;;;;;;;;;;5013370;28;20045;-63
2021/09/28 09:34:15;;;;;;;2.72;1.08;;;;;;;;;;5010031;28;20060;-63
2021/09/28 09:36:41;;;;;;;7.40;1.40;;;;;;;;;;5003315;28;20029;-64
2021/09/28 09:39:10;;;;;;;3.85;1.10;;;;;;;;;;5013915;28;20022;-64
2021/09/28 09:41:39;;;;;;;2.72;1.20;;;;;;;;;;5012333;28;20063;-64
2021/09/28 09:44:12;;;;;;;2.33;1.23;;;;;;;;;;5007168;28;20065;-64
2021/09/28 09:46:47;;;;;;;3.60;1.02;;;;;;;;;;5021844;28;20029;-64
2021/09/28 09:49:16;;;;;;;3.25;1.00;;;;;;;;;;5008536;28;20026;-65
2021/09/28 09:51:41;;;;;;;2.38;1.10;;;;;;;;;;5013465;28;20511;-65
2021/09/28 09:54:07;;;;;;;1.65;1.08;;;;;;;;;;5013298;28;20045;-64
2021/09/28 09:56:51;;;;;;;3.47;1.15;;;;;;;;;;4998239;28;20097;-64
2021/09/28 09:59:21;;;;;;;1.98;0.93;;;;;;;;;;5012091;28;20014;-64
2021/09/28 10:01:52;;;;;;;1.25;0.90;;;;;;;;;;5005587;28;20030;-64
2021/09/28 10:04:21;;;;;;;2.63;1.15;;;;;;;;;;5013110;28;20104;-63
2021/09/28 10:06:47;;;;;;;2.75;1.00;;;;;;;;;;4995392;28;20022;-64
2021/09/28 10:09:30;;;;;;;3.15;1.20;;;;;;;;;;4995502;28;20022;-64
2021/09/28 10:12:01;;;;;;;;;;;;;;;;;;5012101;28;20563;-64
2021/09/28 10:14:31;;;;;;;2.70;1.45;;;;;;;;;;5012195;28;20000;-64
2021/09/28 10:16:59;;;;;;;2.63;1.38;;;;;;;;;;4993167;28;20370;-65
2021/09/28 10:19:27;;;;;;;2.45;1.05;;;;;;;;;;5021748;28;20032;-65
2021/09/28 10:21:59;;;;;;;5.45;1.20;;;;;;;;;;5019495;28;20365;-65
2021/09/28 10:24:33;;;;;;;1.43;0.90;;;;;;;;;;5008493;28;20475;-64
2021/09/28 10:26:59;;;;;;;2.25;0.80;;;;;;;;;;5010419;28;20105;-64
2021/09/28 10:29:42;;;;;;;2.80;0.90;;;;;;;;;;4995098;28;20113;-65
2021/09/28 10:32:23;;;;;;;3.17;0.90;;;;;;;;;;5017058;28;20048;-65
2021/09/28 10:35:01;;;;;;;2.55;0.90;;;;;;;;;;5010716;28;20485;-64
2021/09/28 10:37:41;;;;;;;4.07;1.00;;;;;;;;;;4993046;28;20088;-64
2021/09/28 10:40:08;;;;;;;2.83;1.20;;;;;;;;;;4993997;28;20026;-65
2021/09/28 10:42:52;;;;;;;1.83;0.90;;;;;;;;;;5019795;28;20032;-65
2021/09/28 10:45:33;;;;;;;1.73;1.30;;;;;;;;;;5008471;28;20117;-65
2021/09/28 10:48:06;;;;;;;4.40;1.25;;;;;;;;;;5003644;28;20026;-65
2021/09/28 10:50:42;;;;;;;2.35;1.10;;;;;;;;;;4993031;28;20046;-65
2021/09/28 10:53:19;;;;;;;2.90;1.20;;;;;;;;;;4992933;28;20023;-65
2021/09/28 10:55:50;;;;;;;1.38;1.00;;;;;;;;;;4992871;28;20019;-64
2021/09/28 10:58:18;;;;;;;1.77;1.02;;;;;;;;;;4992808;28;20665;-64
2021/09/28 11:00:55;;;;;;;1.60;1.10;;;;;;;;;;4992765;28;20025;-65
2021/09/28 11:03:51;;;;;;;2.80;1.10;;;;;;;;;;5016982;28;20105;-65
2021/09/28 11:06:36;;;;;;;2.05;1.05;;;;;;;;;;5005798;28;20490;-65
2021/09/28 11:09:15;;;;;;;3.53;1.05;;;;;;;;;;4992455;28;20441;-64
2021/09/28 11:12:01;;;;;;;1.02;0.85;;;;;;;;;;4992868;28;20022;-64
2021/09/28 11:14:36;;;;;;;4.95;1.52;;;;;;;;;;4993275;28;20026;-64
2021/09/28 11:17:03;;;;;;;2.78;0.90;;;;;;;;;;4992991;28;20038;-64
2021/09/28 11:19:33;;;;;;;3.20;1.00;;;;;;;;;;5016215;28;20057;-64
2021/09/28 11:22:01;;;;;;;3.75;1.25;;;;;;;;;;4995633;28;20388;-64
2021/09/28 11:24:30;;;;;;;4.65;1.23;;;;;;;;;;4992732;28;20023;-64
2021/09/28 11:27:00;;;;;;;1.63;1.10;;;;;;;;;;4991302;28;20118;-65
2021/09/28 11:29:26;;;;;;;4.10;1.10;;;;;;;;;;5017778;28;20475;-64
2021/09/28 11:31:51;;;;;;;3.57;1.60;;;;;;;;;;5008166;28;20106;-64
2021/09/28 11:34:36;;;;;;;2.15;1.10;;;;;;;;;;4992634;28;20293;-65
2021/09/28 11:37:05;;;;;;;3.28;1.33;;;;;;;;;;5027034;28;20108;-64
2021/09/28 11:39:38;;;;;;;2.28;1.05;;;;;;;;;;5012075;28;20026;-64
2021/09/28 11:42:06;;;;;;;;;;;;;;;;;;5011383;28;20025;-65
2021/09/28 11:44:33;;;;;;;3.20;1.10;;;;;;;;;;5012017;28;19906;-65
2021/09/28 11:46:58;;;;;;;2.22;1.17;;;;;;;;;;5011073;28;20026;-64
2021/09/28 11:49:26;;;;;;;2.23;1.00;;;;;;;;;;5012013;28;20362;-65
2021/09/28 11:51:52;;;;;;;2.70;1.20;;;;;;;;;;5011184;28;20269;-65
2021/09/28 11:54:17;;;;;;;2.80;0.93;;;;;;;;;;5013596;28;20022;-65
2021/09/28 11:56:45;;;;;;;3.03;1.02;;;;;;;;;;5014347;28;20390;-66
2021/09/28 11:59:12;;;;;;;3.13;1.13;;;;;;;;;;5015618;28;20525;-65
2021/09/28 12:01:37;;;;;;;2.15;1.17;;;;;;;;;;5015641;28;20018;-65
2021/09/28 12:10:06;;;;;;;2.03;1.00;;;;;;;;;;5015770;28;20032;-65
2021/09/28 12:12:38;;;;;;;1.83;1.20;;;;;;;;;;4992852;28;20037;-65
2021/09/28 12:15:10;;;;;;;1.70;1.08;;;;;;;;;;5014376;28;20029;-65
2021/09/28 12:17:41;;;;;;;2.33;1.20;;;;;;;;;;5015043;28;20056;-65
2021/09/28 12:20:14;;;;;;;1.63;1.10;;;;;;;;;;5015341;28;20026;-65
2021/09/28 12:22:45;;;;;;;3.75;1.30;;;;;;;;;;5015292;28;20025;-65
2021/09/28 12:25:15;;;;;;;2.72;1.00;;;;;;;;;;5013960;28;20026;-65
2021/09/28 12:27:57;;;;;;;1.60;1.05;;;;;;;;;;5014013;28;20390;-65
2021/09/28 12:30:31;;;;;;;1.00;0.85;;;;;;;;;;5013802;28;20026;-65
2021/09/28 12:32:59;;;;;;;4.05;1.38;;;;;;;;;;5022530;28;20041;-65
2021/09/28 12:35:26;;;;;;;4.53;1.00;;;;;;;;;;4995464;28;20504;-65
2021/09/28 12:37:57;;;;;;;4.72;1.40;;;;;;;;;;4998419;28;20104;-64
2021/09/28 12:40:31;;;;;;;1.67;1.10;;;;;;;;;;5001287;28;20030;-64
2021/09/28 12:43:03;;;;;;;2.63;1.10;;;;;;;;;;5002188;28;20381;-65
2021/09/28 12:45:29;;;;;;;2.90;1.30;;;;;;;;;;5014863;28;20026;-64
2021/09/28 12:48:01;;;;;;;2.67;1.05;;;;;;;;;;5014694;28;20026;-65
2021/09/28 12:50:34;;;;;;;1.30;1.20;;;;;;;;;;5014536;28;20104;-64
2021/09/28 12:53:00;;;;;;;1.92;1.13;;;;;;;;;;5013418;28;20022;-65
2021/09/28 12:55:30;;;;;;;1.67;1.17;;;;;;;;;;5014590;28;20018;-65
2021/09/28 12:57:56;;;;;;;1.75;1.05;;;;;;;;;;5014615;28;20129;-65
2021/09/28 13:00:31;;;;;;;1.83;1.17;;;;;;;;;;5013403;28;20037;-64
2021/09/28 13:02:56;;;;;;;2.85;1.00;;;;;;;;;;5014385;28;20022;-65
2021/09/28 13:05:24;;;;;;;1.10;1.00;;;;;;;;;;5012335;28;20033;-65
2021/09/28 13:07:50;;;;;;;2.95;1.20;;;;;;;;;;5014207;28;20022;-65
2021/09/28 13:10:31;;;;;;;1.55;1.00;;;;;;;;;;5014304;28;19909;-64
2021/09/28 13:12:59;;;;;;;2.83;1.15;;;;;;;;;;5014308;28;20022;-65
2021/09/28 13:15:27;;;;;;;3.70;1.23;;;;;;;;;;5012974;28;20022;-65
2021/09/28 13:20:22;;;;;;;2.05;1.17;;;;;;;;;;5051686;22;20081;-62
2021/09/28 13:22:50;;;;;;;4.07;1.45;;;;;;;;;;5031663;28;20021;-55
2021/09/28 13:25:16;;;;;;;3.40;1.35;;;;;;;;;;5032752;28;20104;-57
2021/09/28 13:27:46;;;;;;;2.03;1.25;;;;;;;;;;5047616;28;20104;-58
2021/09/28 13:30:12;;;;;;;2.80;1.15;;;;;;;;;;5013954;28;20018;-59
2021/09/28 13:32:40;;;;;;;1.48;1.10;;;;;;;;;;5026973;28;20087;-56
2021/09/28 13:35:08;;;;;;;3.40;1.10;;;;;;;;;;5013984;28;20022;-58
2021/09/28 13:37:33;;;;;;;2.03;1.20;;;;;;;;;;5013123;28;20126;-61
2021/09/28 13:40:00;;;;;;;3.15;1.40;;;;;;;;;;5024274;28;20498;-58
2021/09/28 13:42:28;;;;;;;1.42;1.02;;;;;;;;;;5013733;28;20025;-61
2021/09/28 13:44:59;;;;;;;5.40;1.10;;;;;;;;;;5013681;28;20021;-57
2021/09/28 13:47:24;;;;;;;3.47;0.98;;;;;;;;;;5012193;28;20030;-58
2021/09/28 13:49:49;;;;;;;2.13;1.20;;;;;;;;;;5013685;28;20080;-58
2021/09/28 13:52:24;;;;;;;1.58;1.10;;;;;;;;;;5012328;28;20080;-56
2021/09/28 13:54:51;;;;;;;1.88;1.25;;;;;;;;;;5013609;28;20081;-57
2021/09/28 13:57:22;;;;;;;1.45;1.00;;;;;;;;;;5013467;28;20376;-56
2021/09/28 13:59:47;;;;;;;2.92;1.48;;;;;;;;;;5013298;28;20393;-58
2021/09/28 14:02:13;;;;;;;2.15;1.10;;;;;;;;;;5013451;28;20022;-58
2021/09/28 14:04:44;;;;;;;2.42;1.10;;;;;;;;;;5012125;28;20022;-61
2021/09/28 14:07:28;;;;;;;3.65;1.20;;;;;;;;;;5011975;28;20049;-59
2021/09/28 14:09:56;;;;;;;2.60;1.48;;;;;;;;;;5013194;28;20045;-59
2021/09/28 14:12:21;;;;;;;2.28;1.20;;;;;;;;;;5011843;28;20087;-58
2021/09/28 14:14:46;;;;;;;3.50;0.90;;;;;;;;;;5013210;28;20022;-60
2021/09/28 14:17:11;;;;;;;1.33;1.20;;;;;;;;;;5013297;28;20022;-58
2021/09/28 14:19:37;;;;;;;2.60;1.15;;;;;;;;;;5012965;28;20292;-58
2021/09/28 14:22:02;;;;;;;3.75;1.15;;;;;;;;;;5013212;28;20033;-54
2021/09/28 14:24:31;;;;;;;2.33;1.15;;;;;;;;;;5012672;28;20033;-62
2021/09/28 14:26:59;;;;;;;4.82;2.15;;;;;;;;;;5011849;28;20119;-58
2021/09/28 14:29:24;;;;;;;3.22;0.93;;;;;;;;;;5012881;28;20018;-60
2021/09/28 14:31:53;;;;;;;3.53;1.15;;;;;;;;;;5020614;28;20016;-60
2021/09/28 14:34:24;;;;;;;3.40;1.27;;;;;;;;;;5016060;28;20025;-58
2021/09/28 14:36:59;;;;;;;2.92;1.20;;;;;;;;;;5012866;28;20045;-59
2021/09/28 14:39:25;;;;;;;2.58;1.15;;;;;;;;;;5022526;28;20028;-62
2021/09/28 14:41:50;;;;;;;3.45;1.00;;;;;;;;;;5012105;28;20468;-60
2021/09/28 14:44:15;;;;;;;2.80;1.20;;;;;;;;;;5012816;28;20022;-58
2021/09/28 14:46:56;;;;;;;2.73;1.27;;;;;;;;;;5011619;28;20025;-59
2021/09/28 14:49:31;;;;;;;2.25;1.10;;;;;;;;;;5011396;28;20283;-59
2021/09/28 14:51:56;;;;;;;1.58;1.00;;;;;;;;;;5012488;28;20010;-59
2021/09/28 14:54:32;;;;;;;2.23;1.20;;;;;;;;;;5011486;28;20109;-59
2021/09/28 14:57:07;;;;;;;2.10;1.33;;;;;;;;;;5012531;28;20267;-55
2021/09/28 14:59:32;;;;;;;2.85;1.10;;;;;;;;;;5011302;28;20026;-59
2021/09/28 15:01:58;;;;;;;5.13;1.30;;;;;;;;;;5012513;28;20377;-59
2021/09/28 15:04:23;;;;;;;1.35;1.10;;;;;;;;;;5011124;28;20025;-58
2021/09/28 15:06:48;;;;;;;4.47;1.40;;;;;;;;;;5012384;28;20032;-55